Terminal Aerodrome Forecast
Issued by NWS Wilmington, OH

Home | Current Version | Previous Version | Text Only | Print | Product List | Glossary On
Versions: 1 2 3 4 5 6 7 8 9 10 11 12 13 14 15 16 17
000
FTUS41 KILN 251700
TAFILN
TAF
KILN 251729Z 2518/2618 09012G20KT 4SM -SHRA SCT025 OVC035
     FM251900 08012G20KT 4SM -SHRA OVC025
     FM252200 06012G20KT P6SM VCSH OVC008
     FM260100 03012G20KT P6SM OVC008
     FM260600 02013KT P6SM SCT008 BKN050
     FM261300 01012KT P6SM SCT035=

USA.gov is the U.S. government's official web portal to all federal, state and local government web resources and services.